Time;durP1;ratioP1;P1;durP2;ratioP2;P2;SDS_P1;SDS_P2;PMS_P1;PMS_P2;Temp;Humidity;BMP_temperature;BMP_pressure;BME280_temperature;BME280_humidity;BME280_pressure;Samples;Min_cycle;Max_cycle;Signal;HPM_P1;HPM_P2
2022/11/10 00:02:11;;;;;;;11.27;4.68;;;11.00;99.90;;;;;;4995710;28;20248;-81
2022/11/10 00:04:38;;;;;;;8.95;4.95;;;11.00;99.90;;;;;;5005950;28;20652;-81
2022/11/10 00:07:05;;;;;;;13.27;5.25;;;10.90;99.90;;;;;;5011915;28;20255;-80
2022/11/10 00:09:32;;;;;;;13.45;6.07;;;10.90;99.90;;;;;;5014517;28;20211;-80
2022/11/10 00:11:59;;;;;;;9.98;4.75;;;10.90;99.90;;;;;;4999426;28;20291;-80
2022/11/10 00:17:12;;;;;;;8.85;5.13;;;10.90;99.90;;;;;;5011552;28;20318;-81
2022/11/10 00:19:40;;;;;;;10.30;5.47;;;10.80;99.90;;;;;;5017718;28;20231;-81
2022/11/10 00:22:07;;;;;;;9.93;6.20;;;10.80;99.90;;;;;;5017577;28;20333;-81
2022/11/10 00:24:34;;;;;;;27.92;6.72;;;10.80;99.90;;;;;;5017274;28;20257;-80
2022/11/10 00:27:01;;;;;;;10.55;5.65;;;10.80;99.90;;;;;;5017438;28;20761;-80
2022/11/10 00:29:28;;;;;;;15.30;5.55;;;10.80;99.90;;;;;;5019933;28;20225;-78
2022/11/10 00:31:55;;;;;;;9.25;5.55;;;10.80;99.90;;;;;;5023989;28;20255;-79
2022/11/10 00:34:25;;;;;;;12.52;6.60;;;10.80;99.90;;;;;;5018771;28;20205;-80
2022/11/10 00:36:52;;;;;;;9.73;5.68;;;10.80;99.90;;;;;;5015643;28;20221;-81
2022/11/10 00:39:19;;;;;;;9.65;7.28;;;10.80;99.90;;;;;;5027374;28;20197;-81
2022/11/10 00:41:45;;;;;;;12.45;7.28;;;10.80;99.90;;;;;;5032368;28;20255;-80
2022/11/10 00:44:16;;;;;;;16.55;7.88;;;10.80;99.90;;;;;;5024656;28;20209;-80
2022/11/10 00:46:43;;;;;;;14.82;6.43;;;10.80;99.90;;;;;;5014359;28;20309;-80
2022/11/10 00:49:10;;;;;;;12.63;7.47;;;11.00;99.90;;;;;;5016575;28;20198;-80
2022/11/10 00:51:38;;;;;;;15.90;7.82;;;10.80;99.90;;;;;;5009107;28;20238;-80
2022/11/10 00:54:07;;;;;;;12.68;7.95;;;10.90;99.90;;;;;;4998424;28;20691;-80
2022/11/10 00:56:34;;;;;;;16.38;7.95;;;10.80;99.90;;;;;;5009761;28;20236;-80
2022/11/10 00:59:01;;;;;;;12.70;7.70;;;10.80;99.90;;;;;;5004833;28;20213;-79
2022/11/10 01:01:28;;;;;;;16.67;8.48;;;10.80;99.90;;;;;;5007466;28;20661;-80
2022/11/10 01:03:55;;;;;;;19.75;8.95;;;10.80;99.90;;;;;;5021576;28;20205;-81
2022/11/10 01:06:22;;;;;;;19.88;8.73;;;10.80;99.90;;;;;;5014733;28;20263;-81
2022/11/10 01:08:51;;;;;;;18.10;8.35;;;10.70;99.90;;;;;;5017886;28;20241;-79
2022/11/10 01:11:20;;;;;;;15.57;9.90;;;10.70;99.90;;;;;;5023141;28;20276;-80
2022/11/10 01:13:49;;;;;;;19.20;9.02;;;10.70;99.90;;;;;;5029509;28;20675;-80
2022/11/10 01:16:19;;;;;;;22.77;8.63;;;10.70;99.90;;;;;;5025714;28;20219;-80
2022/11/10 01:18:49;;;;;;;18.73;10.30;;;10.70;99.90;;;;;;5026738;28;20215;-80
2022/11/10 01:21:16;;;;;;;21.58;9.68;;;10.60;99.90;;;;;;5023725;28;20201;-81
2022/11/10 01:23:43;;;;;;;20.40;8.90;;;10.80;99.90;;;;;;5020816;28;20229;-80
2022/11/10 01:26:14;;;;;;;16.08;10.05;;;10.60;99.90;;;;;;5014685;28;20295;-81
2022/11/10 01:28:41;;;;;;;20.90;9.43;;;10.60;99.90;;;;;;5028616;28;20209;-81
2022/11/10 01:31:16;;;;;;;21.58;8.75;;;10.60;99.90;;;;;;5021696;28;20353;-81
2022/11/10 01:33:43;;;;;;;17.90;9.07;;;10.40;99.90;;;;;;5026728;28;20285;-82
2022/11/10 01:36:11;;;;;;;29.13;10.32;;;10.40;99.90;;;;;;5031810;28;20274;-80
2022/11/10 01:38:40;;;;;;;13.30;7.60;;;10.60;99.90;;;;;;5029575;28;20199;-80
2022/11/10 01:41:10;;;;;;;14.75;8.23;;;10.50;99.90;;;;;;5046847;28;20203;-80
2022/11/10 01:43:39;;;;;;;23.60;10.02;;;10.50;99.90;;;;;;5023984;28;20234;-81
2022/11/10 01:46:07;;;;;;;15.25;9.30;;;10.50;99.90;;;;;;5012814;28;20278;-80
2022/11/10 01:48:37;;;;;;;25.00;11.13;;;10.50;99.90;;;;;;5041098;28;20210;-80
2022/11/10 01:51:09;;;;;;;16.00;8.65;;;10.40;99.90;;;;;;5015002;28;20296;-80
2022/11/10 01:53:40;;;;;;;16.02;8.07;;;10.60;99.90;;;;;;5024201;28;20225;-80
2022/11/10 01:56:11;;;;;;;17.20;8.25;;;10.40;99.90;;;;;;5003142;28;20683;-80
2022/11/10 01:58:46;;;;;;;14.70;8.55;;;10.40;99.90;;;;;;5022603;28;20216;-80
2022/11/10 02:01:14;;;;;;;18.77;10.45;;;10.40;99.90;;;;;;5016046;28;20641;-79
2022/11/10 02:03:45;;;;;;;22.08;9.77;;;10.40;99.90;;;;;;5016436;28;20207;-80
2022/11/10 02:06:13;;;;;;;19.38;9.65;;;10.40;99.90;;;;;;5026763;28;20647;-79
2022/11/10 02:08:42;;;;;;;18.20;10.15;;;10.30;99.90;;;;;;5017110;28;20296;-79
2022/11/10 02:11:09;;;;;;;15.05;7.45;;;10.30;99.90;;;;;;5015456;28;20197;-80
2022/11/10 02:13:36;;;;;;;13.75;8.65;;;10.30;99.90;;;;;;5020581;28;20637;-81
2022/11/10 02:16:05;;;;;;;15.88;7.90;;;10.30;99.90;;;;;;5015339;28;20296;-81
2022/11/10 02:18:33;;;;;;;20.52;9.27;;;10.20;99.90;;;;;;5007412;28;20732;-80
2022/11/10 02:21:05;;;;;;;17.17;7.53;;;10.20;99.90;;;;;;5021602;28;20284;-79
2022/11/10 02:23:49;;;;;;;17.73;10.15;;;10.20;99.90;;;;;;5027834;28;20208;-80
2022/11/10 02:26:24;;;;;;;20.15;7.70;;;10.20;99.90;;;;;;5031372;28;20208;-80
2022/11/10 02:28:52;;;;;;;24.50;9.18;;;10.20;99.90;;;;;;5038089;28;20205;-79
2022/11/10 02:31:24;;;;;;;19.65;9.88;;;10.10;99.90;;;;;;5027376;28;20248;-81
2022/11/10 02:33:51;;;;;;;17.63;8.35;;;10.10;99.90;;;;;;5017026;28;20663;-81
2022/11/10 02:36:26;;;;;;;16.92;8.00;;;10.10;99.90;;;;;;5023992;28;20271;-82
2022/11/10 02:38:53;;;;;;;21.45;9.23;;;10.10;99.90;;;;;;5010715;28;20264;-81
2022/11/10 02:41:20;;;;;;;18.80;9.00;;;10.10;99.90;;;;;;5018961;28;20247;-81
2022/11/10 02:43:48;;;;;;;16.45;9.13;;;10.10;99.90;;;;;;5025307;28;20230;-80
2022/11/10 02:46:15;;;;;;;21.98;8.35;;;10.10;99.90;;;;;;5022083;28;20284;-80
2022/11/10 02:48:42;;;;;;;16.23;10.30;;;10.00;99.90;;;;;;5016401;28;20284;-80
2022/11/10 02:51:09;;;;;;;19.05;9.00;;;10.00;99.90;;;;;;5028103;28;20218;-79
2022/11/10 02:53:37;;;;;;;23.13;8.88;;;10.00;99.90;;;;;;5024686;28;20659;-80
2022/11/10 02:56:05;;;;;;;20.40;9.05;;;10.00;99.90;;;;;;5008476;28;20320;-81
2022/11/10 02:58:32;;;;;;;25.50;10.18;;;9.90;99.90;;;;;;5014776;28;20243;-79
2022/11/10 03:00:59;;;;;;;23.08;7.60;;;10.10;99.90;;;;;;5017462;28;20299;-80
2022/11/10 03:03:26;;;;;;;22.13;10.23;;;9.90;99.90;;;;;;5016012;28;20292;-80
2022/11/10 03:05:53;;;;;;;20.50;9.90;;;10.00;99.90;;;;;;5034176;28;20204;-80
2022/11/10 03:08:20;;;;;;;25.58;9.68;;;9.90;99.90;;;;;;5032239;28;20248;-79
2022/11/10 03:10:48;;;;;;;15.32;8.32;;;9.90;99.90;;;;;;5009811;28;20216;-80
2022/11/10 03:13:16;;;;;;;21.13;11.68;;;9.90;99.90;;;;;;5005214;28;20724;-80
2022/11/10 03:15:43;;;;;;;19.88;8.95;;;9.90;99.90;;;;;;5015175;28;20201;-79
2022/11/10 03:18:10;;;;;;;21.27;8.98;;;9.90;99.90;;;;;;5018238;28;20633;-79
2022/11/10 03:20:37;;;;;;;16.92;9.75;;;9.90;99.90;;;;;;5023320;28;20228;-80
2022/11/10 03:23:16;;;;;;;24.27;8.60;;;9.80;99.90;;;;;;5016483;28;20205;-79
2022/11/10 03:25:43;;;;;;;24.65;9.68;;;9.80;99.90;;;;;;5028294;28;20177;-79
2022/11/10 03:28:29;;;;;;;20.08;10.20;;;9.80;99.90;;;;;;5014702;28;20220;-79
2022/11/10 03:30:56;;;;;;;19.73;9.70;;;9.80;99.90;;;;;;5030115;28;20620;-80
2022/11/10 03:33:23;;;;;;;21.60;9.60;;;9.80;99.90;;;;;;5025434;28;20231;-80
2022/11/10 03:35:50;;;;;;;16.50;10.55;;;9.80;99.90;;;;;;5015398;28;20202;-79
2022/11/10 03:38:17;;;;;;;18.65;9.98;;;9.80;99.90;;;;;;5013514;28;20587;-79
2022/11/10 03:40:44;;;;;;;27.90;10.40;;;9.80;99.90;;;;;;5014132;28;20288;-79
2022/11/10 03:43:12;;;;;;;26.33;10.50;;;9.80;99.90;;;;;;5014976;28;20291;-80
2022/11/10 03:45:42;;;;;;;21.05;8.90;;;9.80;99.90;;;;;;5020821;28;20660;-82
2022/11/10 03:48:25;;;;;;;17.80;10.40;;;9.80;99.90;;;;;;5033928;28;20286;-80
2022/11/10 03:50:52;;;;;;;24.75;11.07;;;9.90;99.90;;;;;;5015209;28;20287;-81
2022/11/10 03:53:19;;;;;;;17.75;9.50;;;9.80;99.90;;;;;;5018688;28;20204;-81
2022/11/10 03:55:46;;;;;;;20.75;9.73;;;9.80;99.90;;;;;;5016065;28;20296;-80
2022/11/10 03:58:13;;;;;;;29.85;11.07;;;9.80;99.90;;;;;;5022789;28;20229;-79
2022/11/10 04:00:41;;;;;;;19.88;10.00;;;9.70;99.90;;;;;;5006010;28;20252;-80
2022/11/10 04:03:08;;;;;;;26.58;9.70;;;9.70;99.90;;;;;;5015245;28;20592;-80
2022/11/10 04:11:04;;;;;;;21.17;9.63;;;9.70;99.90;;;;;;5018812;28;20200;-79
2022/11/10 04:16:18;;;;;;;20.00;10.95;;;9.80;99.90;;;;;;5018334;28;20331;-79
2022/11/10 04:18:45;;;;;;;16.55;10.60;;;9.60;99.90;;;;;;5015027;28;20284;-80
2022/11/10 04:21:12;;;;;;;23.90;9.88;;;9.70;99.90;;;;;;5013780;28;20284;-79
2022/11/10 04:23:39;;;;;;;20.52;11.80;;;9.70;99.90;;;;;;5006481;28;20201;-79
2022/11/10 04:28:54;;;;;;;21.48;10.75;;;9.70;99.90;;;;;;5018261;28;20207;-79
2022/11/10 04:31:24;;;;;;;21.48;11.48;;;9.60;99.90;;;;;;5016659;28;20248;-79
2022/11/10 04:33:52;;;;;;;33.88;10.75;;;9.60;99.90;;;;;;5018599;28;20286;-79
2022/11/10 04:36:20;;;;;;;20.23;10.60;;;9.70;99.90;;;;;;5019979;28;20274;-78
2022/11/10 04:38:48;;;;;;;20.42;10.38;;;9.70;99.90;;;;;;5019535;28;20205;-79
2022/11/10 04:41:17;;;;;;;20.50;10.80;;;9.70;99.90;;;;;;5010758;28;20652;-79
2022/11/10 04:43:44;;;;;;;20.10;10.90;;;9.70;99.90;;;;;;5013477;28;20213;-80
2022/11/10 04:46:23;;;;;;;17.85;10.10;;;9.70;99.90;;;;;;5013954;28;20277;-80
2022/11/10 04:48:51;;;;;;;19.35;11.18;;;9.70;99.90;;;;;;5019318;28;20237;-80
2022/11/10 04:51:19;;;;;;;31.95;9.88;;;9.70;99.90;;;;;;5019131;28;20616;-80
2022/11/10 04:53:52;;;;;;;23.85;11.85;;;9.70;99.90;;;;;;5026300;28;21132;-81
2022/11/10 04:56:20;;;;;;;17.83;10.73;;;9.70;99.90;;;;;;5022302;28;20233;-80
2022/11/10 04:58:48;;;;;;;27.17;10.15;;;9.70;99.90;;;;;;5019755;28;20300;-80
2022/11/10 05:01:17;;;;;;;16.70;10.43;;;9.70;99.90;;;;;;5017035;28;20306;-81
2022/11/10 05:03:46;;;;;;;22.58;11.43;;;9.70;99.90;;;;;;5021952;28;20296;-79
2022/11/10 05:06:13;;;;;;;23.42;10.48;;;9.60;99.90;;;;;;5023456;28;20197;-79
2022/11/10 05:08:44;;;;;;;18.40;11.20;;;9.70;99.90;;;;;;5038536;28;20201;-79
2022/11/10 05:11:12;;;;;;;18.20;9.77;;;9.70;99.90;;;;;;5041975;28;20209;-78
2022/11/10 05:13:39;;;;;;;26.98;11.93;;;9.70;99.90;;;;;;5029547;28;20201;-79
2022/11/10 05:16:07;;;;;;;21.88;11.70;;;9.70;99.90;;;;;;5019464;28;20275;-79
2022/11/10 05:18:35;;;;;;;19.90;10.57;;;9.70;99.90;;;;;;5018142;28;20240;-79
2022/11/10 05:21:03;;;;;;;31.65;13.45;;;9.70;99.90;;;;;;5018727;28;20275;-80
2022/11/10 05:23:39;;;;;;;18.50;11.75;;;9.70;99.90;;;;;;5020376;28;20240;-79
2022/11/10 05:26:07;;;;;;;27.55;14.52;;;9.70;99.90;;;;;;5019499;28;20550;-80
2022/11/10 05:28:34;;;;;;;29.80;14.07;;;9.70;99.90;;;;;;5026829;28;20644;-80
2022/11/10 05:31:01;;;;;;;25.58;13.75;;;9.80;99.90;;;;;;5020855;28;20234;-81
2022/11/10 05:33:28;;;;;;;19.00;13.40;;;9.80;99.90;;;;;;5020717;28;20197;-82
2022/11/10 05:35:55;;;;;;;25.58;15.07;;;9.80;99.90;;;;;;5023156;28;20204;-80
2022/11/10 05:38:24;;;;;;;26.80;15.10;;;9.80;99.90;;;;;;5019681;28;20679;-80
2022/11/10 05:40:51;;;;;;;32.80;17.52;;;9.90;99.90;;;;;;5013224;28;20642;-80
2022/11/10 05:43:18;;;;;;;32.33;15.15;;;9.90;99.90;;;;;;5020698;28;20300;-80
2022/11/10 05:45:45;;;;;;;30.25;15.40;;;9.90;99.90;;;;;;5021219;28;20202;-79
2022/11/10 05:48:12;;;;;;;30.35;16.45;;;9.90;99.90;;;;;;5017798;28;20297;-79
2022/11/10 05:50:39;;;;;;;36.67;17.77;;;9.90;99.90;;;;;;5018631;28;20218;-80
2022/11/10 05:53:06;;;;;;;30.63;18.08;;;10.00;99.90;;;;;;5038325;28;20231;-80
2022/11/10 05:55:34;;;;;;;40.50;17.63;;;10.00;99.90;;;;;;5012378;28;20305;-80
2022/11/10 05:58:01;;;;;;;40.40;17.95;;;10.10;99.90;;;;;;5017203;28;20265;-80
2022/11/10 06:00:30;;;;;;;38.65;19.45;;;10.00;99.90;;;;;;5010608;28;20240;-81
2022/11/10 06:02:59;;;;;;;32.10;18.33;;;10.00;99.90;;;;;;5024692;28;20700;-82
2022/11/10 06:05:27;;;;;;;31.20;17.90;;;10.10;99.90;;;;;;5016198;28;20290;-81
2022/11/10 06:07:54;;;;;;;49.90;21.20;;;10.10;99.90;;;;;;5017578;28;20252;-78
2022/11/10 06:10:20;;;;;;;31.73;18.15;;;10.20;99.90;;;;;;5012116;28;20216;-79
2022/11/10 06:12:49;;;;;;;36.80;19.02;;;10.20;99.90;;;;;;5017957;28;20240;-79
2022/11/10 06:15:16;;;;;;;26.70;18.48;;;10.20;99.90;;;;;;5016107;28;20732;-79
2022/11/10 06:17:44;;;;;;;34.60;20.88;;;10.30;99.90;;;;;;5011085;28;20318;-81
2022/11/10 06:20:16;;;;;;;38.70;19.65;;;10.30;99.90;;;;;;5034456;28;20201;-82
2022/11/10 06:22:43;;;;;;;34.70;21.02;;;10.40;99.90;;;;;;5011381;28;20202;-80
2022/11/10 06:25:13;;;;;;;25.90;19.67;;;10.40;99.90;;;;;;5039030;28;20193;-81
2022/11/10 06:27:44;;;;;;;31.67;19.02;;;10.40;99.90;;;;;;5011644;28;20629;-81
2022/11/10 06:30:15;;;;;;;32.72;19.67;;;10.50;99.90;;;;;;5005904;28;20351;-81
2022/11/10 06:32:43;;;;;;;43.40;19.95;;;10.50;99.90;;;;;;5023889;28;20204;-81
2022/11/10 06:35:10;;;;;;;36.28;19.67;;;10.50;99.90;;;;;;5007521;28;20206;-78
2022/11/10 06:37:38;;;;;;;32.05;19.92;;;10.60;99.90;;;;;;5014455;28;20782;-85
2022/11/10 06:40:07;;;;;;;46.92;21.67;;;10.60;99.90;;;;;;5007736;28;20210;-78
2022/11/10 06:42:35;;;;;;;32.45;20.67;;;10.60;99.90;;;;;;5013553;28;20234;-83
2022/11/10 06:45:02;;;;;;;27.77;19.17;;;10.60;99.90;;;;;;5015216;28;20236;-81
2022/11/10 06:47:31;;;;;;;41.20;18.65;;;10.70;99.90;;;;;;5021128;28;20260;-74
2022/11/10 06:49:59;;;;;;;37.60;20.90;;;10.70;99.90;;;;;;4992480;28;20329;-82
2022/11/10 06:52:26;;;;;;;32.55;20.65;;;10.70;99.90;;;;;;5015441;28;20734;-81
2022/11/10 06:54:53;;;;;;;33.50;20.92;;;10.70;99.90;;;;;;5024208;28;20216;-79
2022/11/10 06:57:22;;;;;;;30.70;19.23;;;10.80;99.90;;;;;;5035480;28;20264;-79
2022/11/10 06:59:49;;;;;;;34.58;20.27;;;10.80;99.90;;;;;;5017548;28;20311;-80
2022/11/10 07:02:16;;;;;;;35.05;20.73;;;10.90;99.90;;;;;;5016319;28;20210;-80
2022/11/10 07:04:45;;;;;;;46.70;22.13;;;10.90;99.90;;;;;;5017935;28;20237;-80
2022/11/10 07:07:13;;;;;;;29.67;18.55;;;10.90;99.90;;;;;;5026693;28;20291;-79
2022/11/10 07:09:40;;;;;;;41.47;18.70;;;10.90;99.90;;;;;;5016247;28;20217;-81
2022/11/10 07:12:07;;;;;;;30.98;20.25;;;11.00;99.90;;;;;;5023508;28;20207;-80
2022/11/10 07:14:34;;;;;;;41.70;20.63;;;11.00;99.90;;;;;;5014092;28;20224;-80
2022/11/10 07:17:01;;;;;;;30.80;19.60;;;11.10;99.90;;;;;;5015777;28;20220;-81
2022/11/10 07:19:28;;;;;;;31.05;19.95;;;11.10;99.90;;;;;;5006901;28;20227;-79
2022/11/10 07:21:58;;;;;;;32.92;21.00;;;11.10;99.90;;;;;;5009176;28;20659;-79
2022/11/10 07:24:25;;;;;;;27.52;19.10;;;11.20;99.90;;;;;;5015604;28;20230;-81
2022/11/10 07:26:52;;;;;;;38.50;23.90;;;11.20;99.90;;;;;;5021997;28;20241;-78
2022/11/10 07:29:20;;;;;;;30.80;17.75;;;11.20;99.90;;;;;;5015541;28;20225;-78
2022/11/10 07:31:47;;;;;;;33.22;19.02;;;11.20;99.90;;;;;;5016738;28;20195;-82
2022/11/10 07:34:14;;;;;;;25.30;19.20;;;11.20;99.90;;;;;;5032220;28;20184;-78
2022/11/10 07:36:45;;;;;;;34.17;19.92;;;11.20;99.90;;;;;;5025038;28;20261;-80
2022/11/10 07:39:14;;;;;;;29.02;16.90;;;11.30;99.90;;;;;;5014503;28;20314;-80
2022/11/10 07:41:42;;;;;;;28.52;18.83;;;11.30;99.90;;;;;;5014630;28;20619;-78
2022/11/10 07:44:10;;;;;;;25.02;17.02;;;11.40;99.90;;;;;;5023310;28;20215;-77
2022/11/10 07:46:38;;;;;;;33.95;20.38;;;11.40;99.90;;;;;;5018771;28;20217;-76
2022/11/10 07:49:04;;;;;;;29.92;18.98;;;11.50;99.90;;;;;;5014605;28;20196;-77
2022/11/10 07:51:31;;;;;;;31.98;16.75;;;11.70;99.90;;;;;;5013848;28;20243;-78
2022/11/10 07:53:58;;;;;;;30.95;16.88;;;11.70;99.90;;;;;;5025436;28;20242;-81
2022/11/10 07:56:27;;;;;;;27.08;16.98;;;11.90;99.90;;;;;;5021358;28;20312;-78
2022/11/10 07:58:53;;;;;;;35.22;18.60;;;11.90;99.90;;;;;;5016998;28;20214;-79
2022/11/10 08:01:21;;;;;;;27.08;17.15;;;11.80;99.90;;;;;;5008967;28;20298;-78
2022/11/10 08:03:48;;;;;;;23.73;17.55;;;11.80;99.90;;;;;;5014031;28;20668;-78
2022/11/10 08:06:21;;;;;;;29.80;18.25;;;11.80;99.90;;;;;;5000707;28;20228;-77
2022/11/10 08:08:48;;;;;;;31.70;16.88;;;11.70;99.90;;;;;;5010695;28;20296;-76
2022/11/10 08:11:15;;;;;;;24.30;15.45;;;11.80;99.90;;;;;;5012197;28;20204;-77
2022/11/10 08:13:43;;;;;;;27.92;19.05;;;11.80;99.90;;;;;;5013982;28;20272;-77
2022/11/10 08:16:10;;;;;;;23.92;15.65;;;11.80;99.90;;;;;;5011760;28;20234;-76
2022/11/10 08:18:37;;;;;;;26.83;15.52;;;11.80;99.90;;;;;;5018215;28;20256;-78
2022/11/10 08:21:06;;;;;;;27.15;16.05;;;12.00;99.90;;;;;;5013970;28;20389;-78
2022/11/10 08:23:33;;;;;;;24.80;14.30;;;12.20;99.90;;;;;;5026915;28;20232;-79
2022/11/10 08:26:02;;;;;;;24.60;15.32;;;12.30;99.90;;;;;;5020322;28;20202;-79
2022/11/10 08:28:29;;;;;;;28.40;17.20;;;12.40;99.90;;;;;;5020241;28;20257;-77
2022/11/10 08:30:57;;;;;;;29.40;13.68;;;12.80;99.90;;;;;;5016531;28;20232;-77
2022/11/10 08:33:24;;;;;;;25.83;14.55;;;13.10;99.90;;;;;;5015127;28;20212;-79
2022/11/10 08:35:52;;;;;;;20.15;14.55;;;13.40;99.90;;;;;;5016017;28;20201;-79
2022/11/10 08:38:21;;;;;;;26.33;15.50;;;13.60;99.90;;;;;;5019353;28;20300;-78
2022/11/10 08:40:48;;;;;;;23.52;15.95;;;13.50;99.90;;;;;;5031180;28;20255;-78
2022/11/10 08:43:16;;;;;;;28.80;14.50;;;13.50;99.90;;;;;;5021270;28;20204;-79
2022/11/10 08:45:45;;;;;;;28.08;15.18;;;13.40;99.90;;;;;;5002291;28;20237;-79
2022/11/10 08:48:16;;;;;;;19.95;13.77;;;13.40;99.90;;;;;;5021296;28;20212;-79
2022/11/10 08:50:44;;;;;;;26.75;12.60;;;13.50;99.90;;;;;;5013970;28;20229;-78
2022/11/10 08:53:13;;;;;;;19.83;13.05;;;13.40;99.90;;;;;;5012883;28;20237;-78
2022/11/10 08:55:41;;;;;;;21.27;14.98;;;13.40;99.90;;;;;;5013864;28;20300;-78
2022/11/10 08:58:11;;;;;;;26.52;14.43;;;13.20;99.90;;;;;;5013784;28;20738;-76
2022/11/10 09:00:38;;;;;;;28.30;14.60;;;13.30;99.90;;;;;;5006259;28;20276;-78
2022/11/10 09:03:08;;;;;;;25.67;13.23;;;13.80;99.90;;;;;;5012587;28;20201;-79
2022/11/10 09:05:36;;;;;;;21.58;12.75;;;14.10;99.90;;;;;;5021631;28;20236;-78
2022/11/10 09:08:04;;;;;;;23.90;12.63;;;14.20;99.90;;;;;;5013141;28;20658;-79
2022/11/10 09:10:32;;;;;;;15.98;13.32;;;14.20;99.90;;;;;;5012396;28;20288;-82
2022/11/10 09:13:00;;;;;;;20.60;11.25;;;14.50;99.90;;;;;;5015958;28;20283;-80
2022/11/10 09:15:27;;;;;;;22.17;11.32;;;14.40;99.90;;;;;;5015716;28;20214;-85
2022/11/10 09:18:04;;;;;;;24.23;11.52;;;14.40;99.90;;;;;;5029156;28;20230;-79
2022/11/10 09:20:33;;;;;;;19.10;11.23;;;14.50;99.90;;;;;;5022964;28;20202;-80
2022/11/10 09:23:06;;;;;;;23.27;12.20;;;15.10;99.90;;;;;;5011798;28;20202;-81
2022/11/10 09:25:33;;;;;;;18.40;13.00;;;15.00;99.90;;;;;;5005576;28;20199;-80
2022/11/10 09:28:00;;;;;;;20.80;10.97;;;15.20;99.90;;;;;;5011128;28;20224;-78
2022/11/10 09:30:27;;;;;;;17.03;12.00;;;15.50;99.90;;;;;;5007503;28;20474;-80
2022/11/10 09:32:55;;;;;;;21.00;10.47;;;15.80;99.90;;;;;;5016306;28;20539;-82
2022/11/10 09:35:22;;;;;;;24.20;11.80;;;16.10;99.90;;;;;;5009466;28;20506;-80
2022/11/10 09:37:49;;;;;;;18.27;12.20;;;16.10;99.90;;;;;;5010075;28;20479;-78
2022/11/10 09:40:23;;;;;;;19.70;9.90;;;15.90;99.90;;;;;;5012191;28;20462;-79
2022/11/10 09:42:54;;;;;;;18.93;10.30;;;16.30;99.90;;;;;;5020764;28;20526;-79
2022/11/10 09:45:24;;;;;;;15.20;9.30;;;16.80;99.90;;;;;;5020937;28;20454;-78
2022/11/10 09:47:59;;;;;;;14.53;9.40;;;16.90;99.90;;;;;;5017095;28;20494;-76
2022/11/10 09:50:37;;;;;;;10.13;8.60;;;16.50;99.90;;;;;;5018028;28;20816;-79
2022/11/10 09:53:07;;;;;;;27.13;10.03;;;15.90;99.90;;;;;;5003851;28;20913;-79
2022/11/10 09:55:41;;;;;;;15.18;10.60;;;15.90;99.90;;;;;;5008944;28;21040;-80
2022/11/10 09:58:12;;;;;;;26.92;11.27;;;15.10;99.90;;;;;;5012219;28;20640;-83
2022/11/10 10:00:42;;;;;;;17.67;9.43;;;15.10;99.90;;;;;;5007543;28;20295;-81
2022/11/10 10:03:17;;;;;;;16.77;9.95;;;15.60;99.90;;;;;;5015243;28;20295;-78
2022/11/10 10:06:01;;;;;;;19.75;10.02;;;15.40;99.90;;;;;;4993774;28;20293;-80
2022/11/10 10:08:38;;;;;;;13.60;8.00;;;15.60;99.90;;;;;;5007817;28;20200;-81
2022/11/10 10:11:19;;;;;;;18.87;8.47;;;16.40;99.90;;;;;;5009027;28;20522;-77
2022/11/10 10:13:59;;;;;;;18.20;9.60;;;16.80;99.90;;;;;;5013563;28;20939;-76
2022/11/10 10:16:36;;;;;;;16.17;9.03;;;16.90;99.90;;;;;;4994812;28;20472;-77
2022/11/10 10:19:15;;;;;;;13.93;9.17;;;16.50;99.90;;;;;;5016027;28;20519;-74
2022/11/10 10:21:50;;;;;;;21.45;9.80;;;16.10;99.90;;;;;;4996660;28;20480;-78
2022/11/10 10:24:19;;;;;;;17.92;8.77;;;15.70;99.90;;;;;;5019907;28;20253;-77
2022/11/10 10:26:52;;;;;;;18.63;8.23;;;15.30;99.90;;;;;;5028868;28;20313;-79
2022/11/10 10:29:22;;;;;;;21.80;9.25;;;15.30;99.90;;;;;;5022206;28;20209;-75
2022/11/10 10:31:51;;;;;;;15.77;8.93;;;15.20;99.90;;;;;;5016100;28;20226;-77
2022/11/10 10:34:20;;;;;;;17.48;8.77;;;14.90;99.90;;;;;;5013899;28;20524;-77
2022/11/10 10:36:47;;;;;;;19.25;8.88;;;14.70;99.90;;;;;;5015497;28;20221;-77
2022/11/10 10:39:20;;;;;;;17.27;8.48;;;14.60;99.90;;;;;;5016345;28;20294;-76
2022/11/10 10:41:49;;;;;;;12.35;8.82;;;14.70;99.90;;;;;;5019268;28;20255;-76
2022/11/10 10:44:18;;;;;;;13.90;8.40;;;14.60;99.90;;;;;;5022611;28;20296;-77
2022/11/10 10:46:47;;;;;;;20.85;7.65;;;14.50;99.90;;;;;;5012001;28;20221;-77
2022/11/10 10:49:19;;;;;;;12.57;8.45;;;14.30;99.90;;;;;;5013314;28;20228;-77
2022/11/10 10:51:46;;;;;;;27.85;8.60;;;14.40;99.90;;;;;;5009899;28;20288;-76
2022/11/10 10:54:24;;;;;;;18.35;9.63;;;14.60;99.90;;;;;;5015175;28;20693;-74
2022/11/10 10:57:05;;;;;;;10.55;6.63;;;14.80;99.90;;;;;;5018687;28;20304;-77
2022/11/10 10:59:33;;;;;;;14.70;6.22;;;14.70;99.90;;;;;;5021116;28;20604;-77
2022/11/10 11:02:00;;;;;;;17.80;7.07;;;14.60;99.90;;;;;;5016250;28;20199;-75
2022/11/10 11:04:30;;;;;;;17.77;7.50;;;14.80;99.90;;;;;;5025877;28;20608;-75
2022/11/10 11:06:59;;;;;;;20.13;6.72;;;14.60;99.90;;;;;;5009122;28;20230;-78
2022/11/10 11:09:27;;;;;;;13.57;8.20;;;14.80;99.90;;;;;;5014963;28;20198;-77
2022/11/10 11:12:06;;;;;;;12.23;6.32;;;14.70;99.90;;;;;;5012657;28;20233;-77
2022/11/10 11:14:33;;;;;;;13.27;6.50;;;14.60;99.90;;;;;;5007417;28;20235;-78
2022/11/10 11:17:02;;;;;;;22.27;8.77;;;14.60;99.90;;;;;;5002073;28;20295;-78
2022/11/10 11:19:33;;;;;;;16.23;7.50;;;14.90;99.90;;;;;;5009208;28;20216;-79
2022/11/10 11:22:34;;;;;;;14.93;8.07;;;14.90;99.90;;;;;;5008176;28;20360;-79
2022/11/10 11:25:15;;;;;;;17.40;7.85;;;15.00;99.90;;;;;;5014111;28;20205;-77
2022/11/10 11:27:54;;;;;;;14.40;8.70;;;14.90;99.90;;;;;;5016087;28;20225;-79
2022/11/10 11:30:22;;;;;;;15.10;7.85;;;14.80;99.90;;;;;;5015553;28;20205;-79
2022/11/10 11:33:13;;;;;;;17.42;7.97;;;14.70;99.90;;;;;;5022706;28;20724;-78
2022/11/10 11:35:48;;;;;;;13.68;7.90;;;14.70;99.90;;;;;;5018228;28;20210;-78
2022/11/10 11:38:22;;;;;;;12.20;7.45;;;14.70;99.90;;;;;;5011430;28;20235;-79
2022/11/10 11:40:57;;;;;;;19.30;9.07;;;14.80;99.90;;;;;;5016426;28;20635;-81
2022/11/10 11:43:55;;;;;;;12.52;6.97;;;15.10;99.90;;;;;;4999557;28;20209;-78
2022/11/10 11:46:31;;;;;;;15.85;6.57;;;15.10;99.90;;;;;;5006098;28;20228;-77
2022/11/10 11:49:15;;;;;;;16.13;7.17;;;15.20;99.90;;;;;;5020604;28;21348;-77
2022/11/10 11:51:49;;;;;;;16.30;5.70;;;15.30;99.90;;;;;;4995745;28;20488;-77
2022/11/10 11:54:28;;;;;;;14.77;5.73;;;15.30;99.90;;;;;;5014666;28;20256;-78
2022/11/10 11:57:05;;;;;;;14.10;7.03;;;15.20;99.90;;;;;;5013857;28;20465;-77
2022/11/10 11:59:59;;;;;;;15.43;6.03;;;15.00;99.90;;;;;;4995597;28;20641;-79
2022/11/10 12:02:49;;;;;;;16.85;6.35;;;14.70;99.90;;;;;;5019762;28;20572;-77
2022/11/10 12:05:35;;;;;;;17.40;7.13;;;14.90;99.90;;;;;;4995584;28;20292;-76
2022/11/10 12:08:15;;;;;;;14.73;6.95;;;15.10;99.90;;;;;;5017811;28;20226;-79
2022/11/10 12:10:51;;;;;;;13.25;5.97;;;15.10;99.90;;;;;;4992993;28;20199;-77
2022/11/10 12:13:37;;;;;;;14.95;6.55;;;15.00;99.90;;;;;;4997175;28;20671;-78
2022/11/10 12:16:13;;;;;;;19.05;6.65;;;15.00;99.90;;;;;;5006663;28;20201;-77
2022/11/10 12:18:47;;;;;;;14.13;5.40;;;15.00;99.90;;;;;;4994872;28;20307;-80
2022/11/10 12:21:26;;;;;;;18.65;6.18;;;15.10;99.90;;;;;;5018598;28;20221;-76
2022/11/10 12:24:12;;;;;;;15.38;5.70;;;15.00;99.90;;;;;;5017640;28;20253;-79
2022/11/10 12:26:48;;;;;;;21.35;5.88;;;14.80;99.90;;;;;;5013661;28;20283;-74
2022/11/10 12:29:25;;;;;;;24.92;5.90;;;14.90;99.90;;;;;;5003190;28;20193;-78
2022/11/10 12:31:58;;;;;;;11.77;5.03;;;14.90;99.90;;;;;;5016080;28;20653;-77
2022/11/10 12:34:34;;;;;;;19.40;5.75;;;14.80;99.90;;;;;;5018568;28;20237;-77
2022/11/10 12:37:06;;;;;;;12.02;4.15;;;14.80;99.90;;;;;;4993831;28;20222;-77
2022/11/10 12:39:43;;;;;;;14.15;5.20;;;14.80;99.90;;;;;;5012048;28;20233;-76
2022/11/10 12:42:14;;;;;;;15.13;6.75;;;14.80;99.90;;;;;;5013673;28;20233;-75
2022/11/10 12:44:55;;;;;;;7.75;4.63;;;14.90;99.90;;;;;;5013438;28;20202;-79
2022/11/10 12:47:26;;;;;;;10.85;4.95;;;14.90;99.90;;;;;;5002016;28;20297;-79
2022/11/10 12:50:04;;;;;;;13.50;4.97;;;15.00;99.90;;;;;;5017934;28;20201;-77
2022/11/10 12:52:37;;;;;;;13.98;5.07;;;15.10;99.90;;;;;;5022991;28;20202;-77
2022/11/10 12:55:05;;;;;;;13.75;4.78;;;15.20;99.90;;;;;;5025409;28;20325;-81
2022/11/10 12:57:33;;;;;;;13.80;4.50;;;15.10;99.90;;;;;;5018085;28;20226;-78
2022/11/10 13:00:04;;;;;;;14.80;6.22;;;15.00;99.90;;;;;;5013984;28;20246;-77
2022/11/10 13:02:38;;;;;;;14.20;7.77;;;15.00;99.90;;;;;;5010925;28;21695;-77